Time;durP1;ratioP1;P1;durP2;ratioP2;P2;SDS_P1;SDS_P2;PMS_P1;PMS_P2;Temp;Humidity;BMP_temperature;BMP_pressure;BME280_temperature;BME280_humidity;BME280_pressure;Samples;Min_cycle;Max_cycle;Signal;HPM_P1;HPM_P2
2023/10/31 00:00:30;;;;;;;;;;;;;;;18.03;57.82;98959.28;4432553;32;34891;-79
2023/10/31 00:02:57;;;;;;;;;;;;;;;18.11;56.81;98957.53;4431608;32;34140;-79
2023/10/31 00:05:25;;;;;;;;;;;;;;;17.88;57.53;98958.38;4433319;32;33268;-79
2023/10/31 00:07:52;;;;;;;;;;;;;;;17.88;58.15;98954.88;4420393;32;34248;-80
2023/10/31 00:10:20;;;;;;;;;;;;;;;17.67;58.64;98960.91;4425294;32;34141;-79
2023/10/31 00:12:47;;;;;;;;;;;;;;;17.44;59.82;98959.13;4434402;32;34354;-79
2023/10/31 00:15:15;;;;;;;;;;;;;;;17.69;59.02;98954.84;4426068;32;34283;-79
2023/10/31 00:17:42;;;;;;;;;;;;;;;17.58;59.54;98950.44;4433074;32;34217;-79
2023/10/31 00:20:10;;;;;;;;;;;;;;;17.47;59.72;98953.88;4437251;32;35081;-79
2023/10/31 00:22:37;;;;;;;;;;;;;;;17.52;59.48;98953.00;4433291;32;35140;-80
2023/10/31 00:25:06;;;;;;;;;;;;;;;17.70;59.04;98939.97;4419686;32;31937;-79
2023/10/31 00:27:33;;;;;;;;;;;;;;;17.71;59.08;98936.47;4436397;32;34078;-79
2023/10/31 00:30:00;;;;;;;;;;;;;;;17.77;58.47;98947.00;4437419;32;34266;-79
2023/10/31 00:32:28;;;;;;;;;;;;;;;17.69;58.53;98933.87;4430216;32;34451;-79
2023/10/31 00:34:55;;;;;;;;;;;;;;;17.57;58.82;98922.50;4424591;32;34490;-79
2023/10/31 00:37:22;;;;;;;;;;;;;;;17.75;57.88;98922.53;4426482;32;33979;-79
2023/10/31 00:39:50;;;;;;;;;;;;;;;17.63;58.15;98917.25;4429111;32;35650;-79
2023/10/31 00:42:17;;;;;;;;;;;;;;;17.57;58.46;98919.88;4421623;32;35122;-80
2023/10/31 00:44:44;;;;;;;;;;;;;;;17.57;58.58;98920.72;4427370;32;33572;-79
2023/10/31 00:47:12;;;;;;;;;;;;;;;17.42;58.94;98913.75;4431711;32;33808;-79
2023/10/31 00:49:39;;;;;;;;;;;;;;;17.64;58.30;98903.31;4423653;32;34785;-79
2023/10/31 00:52:06;;;;;;;;;;;;;;;17.54;58.49;98906.75;4434916;32;34253;-79
2023/10/31 00:54:34;;;;;;;;;;;;;;;17.48;58.92;98886.66;4424404;32;34332;-80
2023/10/31 00:57:01;;;;;;;;;;;;;;;17.49;58.45;98889.28;4426463;32;33786;-79
2023/10/31 00:59:29;;;;;;;;;;;;;;;17.12;59.77;98888.31;4427109;32;34078;-79
2023/10/31 01:01:56;;;;;;;;;;;;;;;17.28;59.34;98884.00;4430799;32;34591;-79
2023/10/31 01:04:25;;;;;;;;;;;;;;;17.39;58.84;98881.44;4433267;32;33324;-79
2023/10/31 01:06:52;;;;;;;;;;;;;;;17.39;58.58;98871.81;4434157;32;33895;-79
2023/10/31 01:09:20;;;;;;;;;;;;;;;17.47;58.19;98870.09;4430431;32;33746;-79
2023/10/31 01:11:47;;;;;;;;;;;;;;;17.35;58.68;98882.31;4427922;32;34171;-79
2023/10/31 01:14:15;;;;;;;;;;;;;;;17.38;58.63;98863.97;4435848;32;34169;-79
2023/10/31 01:16:42;;;;;;;;;;;;;;;17.43;57.92;98873.56;4426048;32;34854;-79
2023/10/31 01:19:10;;;;;;;;;;;;;;;17.28;58.46;98873.53;4418187;32;34302;-79
2023/10/31 01:21:37;;;;;;;;;;;;;;;17.16;58.82;98849.97;4424377;32;33945;-79
2023/10/31 01:24:05;;;;;;;;;;;;;;;17.38;58.31;98859.59;4429688;32;34085;-79
2023/10/31 01:26:32;;;;;;;;;;;;;;;17.26;58.60;98859.56;4420555;32;33594;-79
2023/10/31 01:28:59;;;;;;;;;;;;;;;17.09;58.91;98852.56;4427219;32;34049;-79
2023/10/31 01:31:28;;;;;;;;;;;;;;;17.05;58.68;98824.63;4429051;32;34486;-79
2023/10/31 01:33:55;;;;;;;;;;;;;;;17.10;58.75;98838.59;4434772;32;33498;-79
2023/10/31 01:36:26;;;;;;;;;;;;;;;17.12;58.84;98835.13;4434137;32;34896;-79
2023/10/31 01:38:54;;;;;;;;;;;;;;;16.84;59.33;98835.00;4431168;32;34250;-79
2023/10/31 01:41:21;;;;;;;;;;;;;;;16.96;59.07;98832.47;4409314;32;33707;-79
2023/10/31 01:43:48;;;;;;;;;;;;;;;17.09;58.86;98826.41;4427545;32;34318;-79
2023/10/31 01:46:16;;;;;;;;;;;;;;;16.82;59.80;98821.06;4433048;32;34640;-79
2023/10/31 01:48:43;;;;;;;;;;;;;;;16.84;60.03;98821.94;4424358;32;34923;-80
2023/10/31 01:51:11;;;;;;;;;;;;;;;17.00;59.62;98821.13;4420439;32;34432;-78
2023/10/31 01:53:38;;;;;;;;;;;;;;;17.10;58.89;98822.03;4432037;32;33557;-79
2023/10/31 01:56:07;;;;;;;;;;;;;;;17.01;58.97;98816.75;4414571;32;34920;-79
2023/10/31 01:58:35;;;;;;;;;;;;;;;17.16;58.59;98810.72;4412508;32;34728;-78
2023/10/31 02:01:03;;;;;;;;;;;;;;;17.13;58.63;98810.69;4418341;32;34045;-79
2023/10/31 02:03:49;;;;;;;;;;;;;;;17.12;58.52;98814.19;4432786;32;34366;-79
2023/10/31 02:06:17;;;;;;;;;;;;;;;17.19;58.12;98815.94;4431445;32;34152;-79
2023/10/31 02:08:47;;;;;;;;;;;;;;;17.21;57.86;98812.47;4412610;32;34130;-79
2023/10/31 02:11:15;;;;;;;;;;;;;;;17.18;57.93;98808.97;4425652;32;34148;-79
2023/10/31 02:13:42;;;;;;;;;;;;;;;16.99;58.48;98798.44;4397835;32;31957;-80
2023/10/31 02:16:10;;;;;;;;;;;;;;;17.05;58.50;98800.19;4432925;32;35461;-79
2023/10/31 02:18:38;;;;;;;;;;;;;;;16.81;59.28;98782.69;4434182;32;34170;-80
2023/10/31 02:21:05;;;;;;;;;;;;;;;16.54;60.39;98784.31;4425645;32;34128;-79
2023/10/31 02:23:32;;;;;;;;;;;;;;;16.98;59.14;98799.31;4418133;32;33356;-79
2023/10/31 02:25:59;;;;;;;;;;;;;;;16.98;59.15;98775.78;4428756;32;33757;-79
2023/10/31 02:28:27;;;;;;;;;;;;;;;16.84;59.30;98790.53;4434527;32;35098;-79
2023/10/31 02:30:55;;;;;;;;;;;;;;;16.96;58.79;98800.16;4427551;32;34239;-79
2023/10/31 02:33:41;;;;;;;;;;;;;;;17.02;58.64;98782.75;4432608;32;33081;-79
2023/10/31 02:36:09;;;;;;;;;;;;;;;16.91;58.87;98789.72;4427679;32;34734;-79
2023/10/31 02:38:36;;;;;;;;;;;;;;;17.02;58.83;98793.22;4434725;32;32964;-79
2023/10/31 02:41:03;;;;;;;;;;;;;;;16.86;58.60;98781.84;4431722;32;34264;-80
2023/10/31 02:43:31;;;;;;;;;;;;;;;17.12;58.30;98782.78;4435494;32;34279;-79
2023/10/31 02:45:58;;;;;;;;;;;;;;;16.75;58.52;98774.81;4432379;32;33969;-80
2023/10/31 02:48:26;;;;;;;;;;;;;;;16.89;58.50;98767.91;4429329;32;34034;-80
2023/10/31 02:50:53;;;;;;;;;;;;;;;17.14;58.03;98794.13;4439363;32;34327;-79
2023/10/31 02:53:21;;;;;;;;;;;;;;;16.97;58.34;98792.34;4430278;32;33482;-79
2023/10/31 02:55:48;;;;;;;;;;;;;;;17.05;58.13;98790.59;4434974;32;34245;-79
2023/10/31 02:58:17;;;;;;;;;;;;;;;17.06;58.06;98783.66;4436122;32;34279;-79
2023/10/31 03:00:44;;;;;;;;;;;;;;;17.00;58.19;98783.66;4432905;32;34232;-79
2023/10/31 03:03:12;;;;;;;;;;;;;;;17.09;58.24;98784.53;4432876;32;33318;-79
2023/10/31 03:05:39;;;;;;;;;;;;;;;17.01;58.35;98781.00;4428318;32;34259;-79
2023/10/31 03:08:08;;;;;;;;;;;;;;;17.19;57.84;98784.53;4411179;32;790186;-79
2023/10/31 03:10:36;;;;;;;;;;;;;;;17.16;57.81;98779.31;4426550;32;33791;-80
2023/10/31 03:13:03;;;;;;;;;;;;;;;17.18;57.95;98777.56;4433012;32;33566;-79
2023/10/31 03:15:31;;;;;;;;;;;;;;;16.89;58.88;98783.59;4433603;32;33864;-79
2023/10/31 03:17:58;;;;;;;;;;;;;;;16.76;59.43;98795.72;4430376;32;35037;-79
2023/10/31 03:20:26;;;;;;;;;;;;;;;16.95;59.21;98790.59;4438546;32;34511;-79
2023/10/31 03:22:54;;;;;;;;;;;;;;;17.16;58.80;98789.78;4432607;32;33503;-79
2023/10/31 03:25:21;;;;;;;;;;;;;;;17.01;59.30;98788.00;4429815;32;35027;-79
2023/10/31 03:27:48;;;;;;;;;;;;;;;17.24;58.76;98790.66;4426833;32;33951;-79
2023/10/31 03:30:16;;;;;;;;;;;;;;;17.10;59.29;98809.81;4423660;32;34864;-79
2023/10/31 03:32:43;;;;;;;;;;;;;;;17.09;59.25;98805.47;4430554;32;33444;-79
2023/10/31 03:35:10;;;;;;;;;;;;;;;17.24;58.94;98814.22;4435109;32;34595;-79
2023/10/31 03:37:41;;;;;;;;;;;;;;;17.32;59.20;98812.47;4415517;32;33587;-79
2023/10/31 03:40:09;;;;;;;;;;;;;;;17.28;59.25;98813.34;4438546;32;33404;-79
2023/10/31 03:42:36;;;;;;;;;;;;;;;17.02;60.94;98808.94;4431451;32;33548;-79
2023/10/31 03:45:04;;;;;;;;;;;;;;;17.01;61.33;98828.09;4428586;32;34129;-78
2023/10/31 03:47:31;;;;;;;;;;;;;;;17.09;61.18;98842.09;4418170;32;33503;-79
2023/10/31 03:49:58;;;;;;;;;;;;;;;16.96;60.82;98808.91;4433750;32;34901;-79
2023/10/31 03:52:26;;;;;;;;;;;;;;;17.08;61.25;98813.31;4426708;32;34312;-79
2023/10/31 03:54:53;;;;;;;;;;;;;;;16.76;62.51;98821.00;4434298;32;33985;-79
2023/10/31 03:57:20;;;;;;;;;;;;;;;16.74;63.15;98823.59;4429782;32;33639;-79
2023/10/31 03:59:47;;;;;;;;;;;;;;;17.00;62.11;98815.91;4433481;32;34201;-79
2023/10/31 04:02:15;;;;;;;;;;;;;;;16.73;62.74;98815.75;4431485;32;33961;-79
2023/10/31 04:04:42;;;;;;;;;;;;;;;16.68;63.37;98811.37;4427035;32;33938;-79
2023/10/31 04:07:10;;;;;;;;;;;;;;;16.80;63.13;98814.91;4432253;32;35104;-79
2023/10/31 04:09:37;;;;;;;;;;;;;;;16.58;63.77;98822.66;4426705;32;34973;-79
2023/10/31 04:12:04;;;;;;;;;;;;;;;16.74;63.69;98813.16;4429151;32;33739;-79
2023/10/31 04:14:32;;;;;;;;;;;;;;;16.64;64.01;98799.16;4436063;32;34207;-78
2023/10/31 04:16:59;;;;;;;;;;;;;;;16.40;64.87;98809.50;4428112;32;34272;-79
2023/10/31 04:19:27;;;;;;;;;;;;;;;16.59;64.56;98808.75;4430660;32;34861;-79
2023/10/31 04:21:54;;;;;;;;;;;;;;;16.67;64.14;98806.16;4428131;32;34072;-79
2023/10/31 04:24:21;;;;;;;;;;;;;;;16.74;63.76;98797.44;4430158;32;33947;-79
2023/10/31 04:26:49;;;;;;;;;;;;;;;16.62;64.31;98793.06;4430857;32;33997;-79
2023/10/31 04:29:16;;;;;;;;;;;;;;;16.53;64.47;98782.56;4426724;32;34566;-79
2023/10/31 04:31:43;;;;;;;;;;;;;;;16.51;64.44;98779.94;4430108;32;34333;-79
2023/10/31 04:34:11;;;;;;;;;;;;;;;16.46;64.57;98781.66;4426664;32;34406;-79
2023/10/31 04:36:38;;;;;;;;;;;;;;;16.36;64.67;98768.53;4425878;32;35039;-79
2023/10/31 04:39:05;;;;;;;;;;;;;;;16.41;64.49;98774.66;4432744;32;33792;-79
2023/10/31 04:41:33;;;;;;;;;;;;;;;16.40;64.96;98775.50;4413894;32;33717;-78
2023/10/31 04:44:00;;;;;;;;;;;;;;;16.39;64.94;98763.34;4410618;32;33340;-79
2023/10/31 04:46:28;;;;;;;;;;;;;;;16.32;65.02;98762.41;4427111;32;33822;-78
2023/10/31 04:48:55;;;;;;;;;;;;;;;16.39;64.63;98765.94;4424964;32;34547;-79
2023/10/31 04:51:23;;;;;;;;;;;;;;;16.39;64.32;98768.56;4427365;32;33709;-78
2023/10/31 04:53:50;;;;;;;;;;;;;;;16.49;64.00;98768.59;4424428;32;33917;-79
2023/10/31 04:56:17;;;;;;;;;;;;;;;16.55;63.76;98765.13;4434904;32;35104;-79
2023/10/31 04:58:44;;;;;;;;;;;;;;;16.52;63.62;98754.69;4427092;32;34970;-79
2023/10/31 05:01:12;;;;;;;;;;;;;;;16.63;63.28;98734.69;4431533;32;34248;-79
2023/10/31 05:03:40;;;;;;;;;;;;;;;16.80;62.21;98739.06;4432873;32;33903;-79
2023/10/31 05:06:07;;;;;;;;;;;;;;;16.63;62.86;98726.84;4426185;32;34198;-79
2023/10/31 05:08:34;;;;;;;;;;;;;;;16.64;62.16;98723.34;4435355;32;34758;-78
2023/10/31 05:11:04;;;;;;;;;;;;;;;16.61;63.02;98718.13;4428541;32;33451;-78
2023/10/31 05:13:31;;;;;;;;;;;;;;;16.53;63.61;98711.97;4432486;32;33597;-79
2023/10/31 05:15:59;;;;;;;;;;;;;;;16.60;63.30;98705.91;4434825;32;33884;-79
2023/10/31 05:18:27;;;;;;;;;;;;;;;16.74;62.77;98707.69;4429822;32;34206;-79
2023/10/31 05:20:54;;;;;;;;;;;;;;;16.61;62.99;98712.87;4427863;32;33564;-78
2023/10/31 05:23:21;;;;;;;;;;;;;;;16.60;63.27;98732.03;4429106;32;34841;-79
2023/10/31 05:25:48;;;;;;;;;;;;;;;16.70;63.21;98749.50;4420286;32;32194;-79
2023/10/31 05:28:16;;;;;;;;;;;;;;;16.60;63.59;98760.81;4425440;32;34520;-79
2023/10/31 05:30:43;;;;;;;;;;;;;;;16.79;62.96;98768.72;4429254;32;33142;-79
2023/10/31 05:33:11;;;;;;;;;;;;;;;16.86;62.95;98778.34;4426877;32;34040;-79
2023/10/31 05:35:38;;;;;;;;;;;;;;;16.83;63.29;98771.38;4431604;32;33833;-78
2023/10/31 05:38:05;;;;;;;;;;;;;;;16.82;63.70;98763.50;4436389;32;34369;-79
2023/10/31 05:40:35;;;;;;;;;;;;;;;16.78;63.62;98772.19;4423612;32;33496;-78
2023/10/31 05:43:02;;;;;;;;;;;;;;;16.76;63.25;98760.84;4426914;32;34993;-79
2023/10/31 05:45:30;;;;;;;;;;;;;;;16.83;62.98;98758.31;4413464;32;33854;-79
2023/10/31 05:47:57;;;;;;;;;;;;;;;16.95;62.08;98749.59;4414606;32;33635;-79
2023/10/31 05:50:25;;;;;;;;;;;;;;;16.86;62.40;98754.81;4428441;32;33380;-78
2023/10/31 05:52:52;;;;;;;;;;;;;;;16.83;62.52;98749.59;4432115;32;35659;-79
2023/10/31 05:55:19;;;;;;;;;;;;;;;16.81;62.97;98748.69;4428121;32;33956;-78
2023/10/31 05:57:47;;;;;;;;;;;;;;;17.07;62.20;98749.66;4411273;32;34493;-78
2023/10/31 06:00:14;;;;;;;;;;;;;;;17.03;62.43;98747.88;4435027;32;33640;-79
2023/10/31 06:02:42;;;;;;;;;;;;;;;16.91;62.85;98742.63;4427199;32;34844;-79
2023/10/31 06:05:09;;;;;;;;;;;;;;;16.93;62.88;98735.66;4428240;32;34125;-79
2023/10/31 06:07:37;;;;;;;;;;;;;;;17.15;62.13;98725.22;4428032;32;34335;-79
2023/10/31 06:10:04;;;;;;;;;;;;;;;16.97;62.38;98726.06;4428831;32;33691;-78
2023/10/31 06:12:31;;;;;;;;;;;;;;;16.96;62.10;98734.78;4432882;32;34701;-79
2023/10/31 06:14:59;;;;;;;;;;;;;;;16.98;61.83;98744.41;4431990;32;35014;-78
2023/10/31 06:17:26;;;;;;;;;;;;;;;17.08;62.06;98750.50;4423152;32;35186;-79
2023/10/31 06:19:54;;;;;;;;;;;;;;;17.17;61.68;98757.50;4423135;32;33153;-78
2023/10/31 06:22:21;;;;;;;;;;;;;;;16.87;62.29;98752.19;4430401;32;34059;-78
2023/10/31 06:24:48;;;;;;;;;;;;;;;17.17;60.63;98760.09;4433198;32;34279;-79
2023/10/31 06:27:15;;;;;;;;;;;;;;;17.19;60.49;98759.25;4424921;32;34161;-79
2023/10/31 06:29:43;;;;;;;;;;;;;;;17.18;60.57;98761.88;4430007;32;33401;-79
2023/10/31 06:32:30;;;;;;;;;;;;;;;17.10;60.26;98754.88;4417852;32;33525;-79
2023/10/31 06:34:58;;;;;;;;;;;;;;;17.12;60.05;98757.50;4404837;32;30843;-80
2023/10/31 06:37:25;;;;;;;;;;;;;;;17.17;59.93;98749.63;4418158;32;34780;-79
2023/10/31 06:39:53;;;;;;;;;;;;;;;17.16;59.80;98737.44;4417974;32;33401;-79
2023/10/31 06:42:20;;;;;;;;;;;;;;;17.33;59.42;98725.25;4417887;32;33935;-79
2023/10/31 06:44:47;;;;;;;;;;;;;;;17.32;59.20;98736.56;4418120;32;34756;-79
2023/10/31 06:47:15;;;;;;;;;;;;;;;17.34;59.14;98750.53;4406067;32;34236;-79
2023/10/31 06:49:42;;;;;;;;;;;;;;;17.56;59.03;98768.84;4417702;32;33373;-79
2023/10/31 06:52:09;;;;;;;;;;;;;;;17.34;59.81;98774.09;4418035;32;34567;-79
2023/10/31 06:54:37;;;;;;;;;;;;;;;17.48;59.52;98769.75;4417401;32;33890;-79
2023/10/31 06:57:04;;;;;;;;;;;;;;;17.48;60.80;98785.47;4418559;32;34330;-78
2023/10/31 06:59:31;;;;;;;;;;;;;;;17.56;60.01;98789.81;4419203;32;33509;-79
2023/10/31 07:01:59;;;;;;;;;;;;;;;17.61;59.47;98772.34;4418010;32;34063;-79
2023/10/31 07:04:26;;;;;;;;;;;;;;;17.56;58.39;98763.63;4417473;32;32952;-79
2023/10/31 07:06:57;;;;;;;;;;;;;;;17.47;57.54;98762.75;4416416;32;33815;-77
2023/10/31 07:09:25;;;;;;;;;;;;;;;17.78;57.01;98769.75;4425313;32;35093;-77
2023/10/31 07:11:53;;;;;;;;;;;;;;;17.57;56.92;98766.25;4429663;32;37392;-79
2023/10/31 07:14:20;;;;;;;;;;;;;;;17.80;55.83;98760.13;4411766;32;34859;-79
2023/10/31 07:16:48;;;;;;;;;;;;;;;17.75;55.84;98770.62;4431927;32;34922;-79
2023/10/31 07:19:16;;;;;;;;;;;;;;;17.82;56.07;98766.25;4433624;32;34163;-79
2023/10/31 07:21:43;;;;;;;;;;;;;;;17.91;55.70;98766.25;4430461;32;32554;-79
2023/10/31 07:24:11;;;;;;;;;;;;;;;17.77;56.24;98774.13;4432092;32;33812;-79
2023/10/31 07:26:38;;;;;;;;;;;;;;;17.88;55.65;98769.75;4430647;32;34138;-79
2023/10/31 07:29:05;;;;;;;;;;;;;;;18.03;54.81;98760.13;4430404;32;33822;-79
2023/10/31 07:31:33;;;;;;;;;;;;;;;17.94;54.93;98747.91;4428944;32;34269;-79
2023/10/31 07:34:01;;;;;;;;;;;;;;;17.97;55.19;98747.03;4432641;32;33701;-79
2023/10/31 07:36:28;;;;;;;;;;;;;;;18.07;54.39;98748.75;4431852;32;34279;-79
2023/10/31 07:38:56;;;;;;;;;;;;;;;18.16;54.27;98761.00;4433460;32;34281;-79
2023/10/31 07:41:23;;;;;;;;;;;;;;;18.24;53.88;98749.59;4426830;32;33639;-79
2023/10/31 07:43:50;;;;;;;;;;;;;;;17.99;55.22;98754.03;4432109;32;34444;-79
2023/10/31 07:46:18;;;;;;;;;;;;;;;17.99;53.75;98764.50;4418177;32;32639;-79
2023/10/31 07:48:46;;;;;;;;;;;;;;;18.06;54.00;98753.13;4428909;32;33043;-79
2023/10/31 07:51:13;;;;;;;;;;;;;;;18.12;53.75;98739.16;4428487;32;36276;-78
2023/10/31 07:53:41;;;;;;;;;;;;;;;18.31;53.40;98746.94;4432427;32;32973;-78
2023/10/31 07:56:18;;;;;;;;;;;;;;;17.97;53.25;98741.81;4431238;32;33245;-79
2023/10/31 07:58:46;;;;;;;;;;;;;;;18.40;53.17;98744.28;4433568;32;33409;-79
2023/10/31 08:01:13;;;;;;;;;;;;;;;18.47;53.38;98740.78;4413096;32;34282;-78
2023/10/31 08:03:41;;;;;;;;;;;;;;;18.56;52.59;98732.88;4431505;32;34157;-78
2023/10/31 08:06:08;;;;;;;;;;;;;;;18.80;52.07;98725.78;4431406;32;35188;-77
2023/10/31 08:08:35;;;;;;;;;;;;;;;18.86;50.99;98723.13;4429277;32;33175;-78
2023/10/31 08:11:03;;;;;;;;;;;;;;;18.82;51.42;98731.91;4429116;32;34145;-78
2023/10/31 08:13:30;;;;;;;;;;;;;;;19.03;51.36;98731.75;4415565;32;32355;-77
2023/10/31 08:15:57;;;;;;;;;;;;;;;18.96;50.73;98730.06;4431507;32;35226;-77
2023/10/31 08:18:26;;;;;;;;;;;;;;;18.69;51.52;98730.19;4415767;32;31822;-77
2023/10/31 08:20:53;;;;;;;;;;;;;;;18.69;51.53;98735.44;4431319;32;34514;-78
2023/10/31 08:23:20;;;;;;;;;;;;;;;18.86;52.05;98736.25;4429868;32;34065;-79
2023/10/31 08:25:48;;;;;;;;;;;;;;;19.00;51.26;98726.53;4428466;32;33193;-78
2023/10/31 08:28:16;;;;;;;;;;;;;;;18.96;51.65;98730.06;4402679;32;31870;-78
2023/10/31 08:30:43;;;;;;;;;;;;;;;18.99;52.01;98730.03;4431618;32;33693;-78
2023/10/31 08:33:10;;;;;;;;;;;;;;;19.25;51.12;98726.34;4433635;32;33883;-78
2023/10/31 08:35:38;;;;;;;;;;;;;;;19.40;50.47;98717.50;4432334;32;34375;-78
2023/10/31 08:38:05;;;;;;;;;;;;;;;19.13;50.84;98710.72;4432545;32;33327;-78
2023/10/31 08:40:32;;;;;;;;;;;;;;;19.22;51.02;98713.28;4432683;32;32904;-78
2023/10/31 08:43:00;;;;;;;;;;;;;;;18.85;50.95;98721.37;4432146;32;33930;-78
2023/10/31 08:45:27;;;;;;;;;;;;;;;19.11;49.68;98712.47;4431503;32;35113;-79
2023/10/31 08:47:55;;;;;;;;;;;;;;;19.27;50.20;98708.84;4434375;32;34091;-79
2023/10/31 08:50:22;;;;;;;;;;;;;;;19.33;49.32;98711.41;4432627;32;34728;-79
2023/10/31 08:52:50;;;;;;;;;;;;;;;19.42;49.54;98711.34;4432182;32;33986;-78
2023/10/31 08:55:18;;;;;;;;;;;;;;;19.45;49.63;98708.69;4432220;32;34383;-78
2023/10/31 08:57:45;;;;;;;;;;;;;;;19.49;49.01;98711.28;4430794;32;34483;-77
2023/10/31 09:00:13;;;;;;;;;;;;;;;19.28;49.84;98704.44;4432567;32;34057;-79
2023/10/31 09:02:40;;;;;;;;;;;;;;;19.76;48.44;98694.41;4431717;32;34351;-79
2023/10/31 09:05:08;;;;;;;;;;;;;;;19.95;48.94;98687.22;4434386;32;34828;-79
2023/10/31 09:07:35;;;;;;;;;;;;;;;20.00;48.44;98686.28;4432999;32;33970;-78
2023/10/31 09:10:05;;;;;;;;;;;;;;;20.07;46.94;98676.59;4420269;32;34615;-78
2023/10/31 09:12:32;;;;;;;;;;;;;;;20.12;46.76;98690.53;4418288;32;34330;-80
2023/10/31 09:15:00;;;;;;;;;;;;;;;20.28;46.42;98692.97;4418916;32;34484;-79
2023/10/31 09:17:28;;;;;;;;;;;;;;;20.38;46.80;98686.72;4418664;32;33358;-80
2023/10/31 09:19:55;;;;;;;;;;;;;;;20.36;46.55;98678.84;4418791;32;33743;-79
2023/10/31 09:22:22;;;;;;;;;;;;;;;20.53;46.33;98676.00;4417977;32;34143;-79
2023/10/31 09:24:50;;;;;;;;;;;;;;;20.19;45.81;98671.16;4419268;32;34536;-78
2023/10/31 09:27:17;;;;;;;;;;;;;;;20.62;46.25;98670.62;4418796;32;33701;-79
2023/10/31 09:29:45;;;;;;;;;;;;;;;20.78;46.38;98665.16;4407859;32;32571;-78
2023/10/31 09:32:14;;;;;;;;;;;;;;;20.60;46.15;98651.37;4406681;32;32375;-79
2023/10/31 09:34:41;;;;;;;;;;;;;;;20.76;45.44;98651.16;4405167;32;34509;-79
2023/10/31 09:37:09;;;;;;;;;;;;;;;20.58;45.60;98642.59;4415966;32;33835;-79
2023/10/31 09:39:36;;;;;;;;;;;;;;;20.72;45.50;98645.06;4416239;32;34478;-79
2023/10/31 09:42:04;;;;;;;;;;;;;;;20.85;45.21;98640.47;4404534;32;33453;-78
2023/10/31 09:44:31;;;;;;;;;;;;;;;20.88;45.55;98640.44;4418110;32;34489;-79
2023/10/31 09:46:59;;;;;;;;;;;;;;;20.50;45.31;98639.22;4408859;32;33650;-79
2023/10/31 09:49:26;;;;;;;;;;;;;;;20.68;45.99;98626.72;4408233;32;33555;-78
2023/10/31 09:51:53;;;;;;;;;;;;;;;20.44;45.14;98628.78;4408730;32;34286;-79
2023/10/31 09:54:21;;;;;;;;;;;;;;;20.51;45.23;98625.16;4404790;32;34561;-79
2023/10/31 09:56:48;;;;;;;;;;;;;;;20.56;45.47;98622.47;4406844;32;34241;-79
2023/10/31 09:59:15;;;;;;;;;;;;;;;20.82;45.12;98619.47;4408743;32;34582;-79
2023/10/31 10:01:43;;;;;;;;;;;;;;;20.91;44.67;98613.19;4405077;32;33298;-79
2023/10/31 10:04:11;;;;;;;;;;;;;;;20.81;44.05;98594.06;4416338;32;34464;-79
2023/10/31 10:06:51;;;;;;;;;;;;;;;20.89;43.83;98579.00;4418222;32;33191;-79
2023/10/31 10:09:19;;;;;;;;;;;;;;;20.93;43.75;98572.78;4407603;32;33875;-79
2023/10/31 10:11:47;;;;;;;;;;;;;;;21.17;43.72;98567.97;4406889;32;34781;-79
2023/10/31 10:14:14;;;;;;;;;;;;;;;21.02;43.66;98562.09;4416261;32;34161;-79
2023/10/31 10:16:41;;;;;;;;;;;;;;;20.93;43.70;98559.63;4416590;32;34352;-79
2023/10/31 10:19:21;;;;;;;;;;;;;;;20.92;43.40;98550.00;4417191;32;33504;-79
2023/10/31 10:21:51;;;;;;;;;;;;;;;21.10;43.88;98540.91;4416915;32;33972;-79
2023/10/31 10:24:18;;;;;;;;;;;;;;;21.25;43.59;98529.22;4416388;32;34455;-79
2023/10/31 10:26:46;;;;;;;;;;;;;;;21.47;43.69;98523.56;4416187;32;33936;-79
2023/10/31 10:29:15;;;;;;;;;;;;;;;21.30;43.90;98522.09;4416661;32;33862;-79
2023/10/31 10:31:43;;;;;;;;;;;;;;;21.49;43.23;98506.84;4416905;32;34906;-79
2023/10/31 10:34:12;;;;;;;;;;;;;;;21.48;43.56;98498.94;4417543;32;34126;-79
2023/10/31 10:36:39;;;;;;;;;;;;;;;21.49;43.79;98483.13;4404416;32;33186;-79
2023/10/31 10:39:07;;;;;;;;;;;;;;;21.65;43.47;98486.31;4407226;32;34110;-79
2023/10/31 10:41:35;;;;;;;;;;;;;;;21.60;43.30;98485.56;4418536;32;34927;-80
2023/10/31 10:44:06;;;;;;;;;;;;;;;21.59;43.16;98494.34;4417727;32;34243;-79
2023/10/31 10:46:35;;;;;;;;;;;;;;;21.78;42.63;98492.19;4418611;32;32451;-79
2023/10/31 10:49:08;;;;;;;;;;;;;;;21.86;43.00;98490.25;4417862;32;34230;-79
2023/10/31 10:51:35;;;;;;;;;;;;;;;21.89;42.27;98486.69;4406028;32;33728;-77
2023/10/31 10:54:19;;;;;;;;;;;;;;;22.04;42.99;98478.44;4419876;32;34444;-79
2023/10/31 10:56:47;;;;;;;;;;;;;;;21.95;41.38;98453.13;4408000;32;33506;-79
2023/10/31 10:59:15;;;;;;;;;;;;;;;21.80;42.21;98459.59;4408042;32;35773;-79
2023/10/31 11:01:42;;;;;;;;;;;;;;;21.89;41.00;98462.97;4406170;32;33428;-80
2023/10/31 11:04:09;;;;;;;;;;;;;;;22.12;41.43;98465.94;4407553;32;34926;-79
2023/10/31 11:06:38;;;;;;;;;;;;;;;21.64;41.01;98445.06;4407140;32;33489;-80
2023/10/31 11:09:08;;;;;;;;;;;;;;;21.82;41.25;98435.00;4428007;32;32994;-79
2023/10/31 11:11:37;;;;;;;;;;;;;;;21.51;40.83;98425.13;4421399;32;34184;-80
2023/10/31 11:14:04;;;;;;;;;;;;;;;21.80;40.61;98440.31;4434925;32;35014;-80
2023/10/31 11:16:37;;;;;;;;;;;;;;;21.90;40.23;98465.53;4421379;32;31729;-79
2023/10/31 11:19:05;;;;;;;;;;;;;;;21.91;40.75;98492.78;4420910;32;34144;-79
2023/10/31 11:21:32;;;;;;;;;;;;;;;22.04;40.69;98489.00;4434824;32;33950;-79
2023/10/31 11:24:00;;;;;;;;;;;;;;;22.00;42.22;98471.50;4421181;32;34844;-79
2023/10/31 11:26:27;;;;;;;;;;;;;;;21.75;42.83;98458.88;4435030;32;33682;-79
2023/10/31 11:29:05;;;;;;;;;;;;;;;21.73;42.91;98450.12;4420543;32;34102;-79
2023/10/31 11:31:33;;;;;;;;;;;;;;;21.85;43.83;98429.69;4429293;32;33010;-79
2023/10/31 11:34:01;;;;;;;;;;;;;;;21.76;44.46;98410.50;4431850;32;33742;-79
2023/10/31 11:36:35;;;;;;;;;;;;;;;21.78;44.12;98377.06;4435051;32;33573;-79
2023/10/31 11:39:15;;;;;;;;;;;;;;;21.65;44.18;98369.50;4420987;32;34171;-79
2023/10/31 11:41:52;;;;;;;;;;;;;;;21.68;45.04;98365.03;4435455;32;33889;-79
2023/10/31 11:44:22;;;;;;;;;;;;;;;21.68;44.88;98365.03;4435805;32;33948;-79
2023/10/31 11:46:51;;;;;;;;;;;;;;;21.70;45.92;98357.94;4434785;32;33164;-79
2023/10/31 11:49:45;;;;;;;;;;;;;;;21.75;45.50;98334.09;4427502;32;33269;-79
2023/10/31 11:52:19;;;;;;;;;;;;;;;21.83;45.49;98333.91;4434706;32;36028;-79
2023/10/31 11:54:46;;;;;;;;;;;;;;;21.77;45.53;98349.00;4434939;32;34381;-79
2023/10/31 11:57:27;;;;;;;;;;;;;;;21.92;45.23;98344.25;4420696;32;34044;-80
2023/10/31 11:59:55;;;;;;;;;;;;;;;21.83;45.59;98345.34;4435066;32;35236;-79
2023/10/31 12:02:22;;;;;;;;;;;;;;;21.72;45.86;98344.75;4420699;32;36323;-79
2023/10/31 12:04:50;;;;;;;;;;;;;;;21.75;45.62;98342.91;4434277;32;33859;-79
2023/10/31 12:07:18;;;;;;;;;;;;;;;21.75;45.55;98334.09;4420796;32;33443;-79
2023/10/31 12:09:46;;;;;;;;;;;;;;;21.70;45.46;98321.06;4434450;32;34872;-80
2023/10/31 12:12:14;;;;;;;;;;;;;;;21.51;45.86;98351.38;4434989;32;34247;-79
2023/10/31 12:14:41;;;;;;;;;;;;;;;21.54;46.27;98367.12;4434574;32;34291;-78
2023/10/31 12:17:09;;;;;;;;;;;;;;;21.53;51.16;98383.81;4434576;32;33808;-79
2023/10/31 12:19:37;;;;;;;;;;;;;;;21.37;53.84;98513.19;4434950;32;34116;-79
2023/10/31 12:22:12;;;;;;;;;;;;;;;20.26;55.50;98556.25;4431634;32;35019;-78
2023/10/31 12:24:39;;;;;;;;;;;;;;;19.89;57.43;98593.53;4434528;32;33951;-79
2023/10/31 12:27:07;;;;;;;;;;;;;;;19.13;58.10;98673.97;4434663;32;33335;-78
2023/10/31 12:29:34;;;;;;;;;;;;;;;18.72;61.07;98686.44;4434788;32;34705;-78
2023/10/31 12:32:02;;;;;;;;;;;;;;;18.47;62.17;98649.88;4434925;32;34197;-78
2023/10/31 12:34:30;;;;;;;;;;;;;;;18.40;62.93;98679.59;4420095;32;33901;-78
2023/10/31 12:36:59;;;;;;;;;;;;;;;18.39;63.80;98642.94;4420525;32;34254;-78
2023/10/31 12:39:29;;;;;;;;;;;;;;;18.42;64.34;98604.44;4435095;32;35001;-78
2023/10/31 12:41:57;;;;;;;;;;;;;;;18.50;64.68;98587.78;4420113;32;33680;-78
2023/10/31 12:44:26;;;;;;;;;;;;;;;18.45;65.01;98596.56;4434346;32;35063;-78
2023/10/31 12:46:54;;;;;;;;;;;;;;;18.35;65.57;98599.25;4420650;32;32983;-78
2023/10/31 12:49:22;;;;;;;;;;;;;;;18.16;66.36;98593.25;4420266;32;34475;-78
2023/10/31 12:51:59;;;;;;;;;;;;;;;18.35;66.23;98573.03;4433703;32;34858;-78